Time;durP1;ratioP1;P1;durP2;ratioP2;P2;SDS_P1;SDS_P2;PMS_P1;PMS_P2;Temp;Humidity;BMP_temperature;BMP_pressure;BME280_temperature;BME280_humidity;BME280_pressure;Samples;Min_cycle;Max_cycle;Signal;HPM_P1;HPM_P2
2022/04/19 00:00:10;;;;;;;7.95;4.25;;;;;;;;;;5123372;28;20475;-43
2022/04/19 00:02:35;;;;;;;4.57;3.33;;;;;;;;;;5124536;28;20676;-41
2022/04/19 00:05:01;;;;;;;5.47;3.42;;;;;;;;;;5125207;28;20053;-42
2022/04/19 00:07:27;;;;;;;5.40;3.92;;;;;;;;;;5124807;28;20050;-41
2022/04/19 00:09:52;;;;;;;3.78;2.85;;;;;;;;;;5124648;28;20512;-41
2022/04/19 00:12:18;;;;;;;4.10;3.13;;;;;;;;;;5124337;28;20126;-42
2022/04/19 00:14:44;;;;;;;20.23;5.35;;;;;;;;;;5123868;28;20073;-46
2022/04/19 00:17:09;;;;;;;12.32;3.65;;;;;;;;;;5124205;28;20298;-40
2022/04/19 00:19:34;;;;;;;7.13;4.05;;;;;;;;;;5124372;28;20426;-40
2022/04/19 00:22:00;;;;;;;6.38;2.33;;;;;;;;;;5124386;28;20051;-41
2022/04/19 00:24:25;;;;;;;6.45;3.67;;;;;;;;;;5123016;28;20520;-41
2022/04/19 00:26:50;;;;;;;5.22;3.33;;;;;;;;;;5123043;28;20517;-42
2022/04/19 00:29:16;;;;;;;5.43;3.20;;;;;;;;;;5123939;28;20505;-43
2022/04/19 00:31:41;;;;;;;6.20;2.83;;;;;;;;;;5123284;28;20664;-42
2022/04/19 00:34:07;;;;;;;7.80;3.42;;;;;;;;;;5123608;28;20047;-42
2022/04/19 00:36:32;;;;;;;9.05;2.72;;;;;;;;;;5118142;28;20584;-41
2022/04/19 00:38:57;;;;;;;1.95;1.73;;;;;;;;;;5122252;28;20043;-42
2022/04/19 00:41:23;;;;;;;4.85;3.63;;;;;;;;;;5121958;28;20058;-44
2022/04/19 00:43:49;;;;;;;9.52;4.47;;;;;;;;;;5123059;28;20113;-43
2022/04/19 00:46:14;;;;;;;3.80;2.60;;;;;;;;;;5125610;28;20047;-44
2022/04/19 00:48:42;;;;;;;4.07;2.95;;;;;;;;;;5126107;28;20043;-42
2022/04/19 00:51:08;;;;;;;3.60;2.33;;;;;;;;;;5125577;27;20043;-41
2022/04/19 00:53:34;;;;;;;3.75;2.67;;;;;;;;;;5124805;28;20049;-41
2022/04/19 00:56:00;;;;;;;11.13;1.98;;;;;;;;;;5124914;28;20046;-41
2022/04/19 00:58:27;;;;;;;4.43;2.42;;;;;;;;;;5126192;28;20071;-47
2022/04/19 01:00:52;;;;;;;3.10;2.50;;;;;;;;;;5125824;28;20165;-44
2022/04/19 01:03:18;;;;;;;3.15;2.85;;;;;;;;;;5125447;28;20707;-42
2022/04/19 01:05:45;;;;;;;2.53;2.33;;;;;;;;;;5124904;28;20054;-44
2022/04/19 01:08:11;;;;;;;3.15;2.75;;;;;;;;;;5125403;28;20055;-42
2022/04/19 01:10:37;;;;;;;9.20;3.00;;;;;;;;;;5124697;28;20566;-44
2022/04/19 01:13:17;;;;;;;3.67;2.40;;;;;;;;;;5121808;28;20047;-41
2022/04/19 01:15:47;;;;;;;3.00;2.67;;;;;;;;;;5125040;28;20141;-45
2022/04/19 01:18:13;;;;;;;4.88;2.72;;;;;;;;;;5124939;28;20318;-47
2022/04/19 01:20:39;;;;;;;3.08;2.40;;;;;;;;;;5124092;28;20050;-45
2022/04/19 01:23:05;;;;;;;3.80;2.85;;;;;;;;;;5125119;28;20066;-40
2022/04/19 01:25:30;;;;;;;4.82;3.90;;;;;;;;;;5123571;28;20051;-41
2022/04/19 01:27:56;;;;;;;5.78;4.55;;;;;;;;;;5125800;28;20055;-42
2022/04/19 01:30:21;;;;;;;3.70;1.95;;;;;;;;;;5125362;28;20066;-42
2022/04/19 01:32:47;;;;;;;2.97;2.42;;;;;;;;;;5124862;28;20035;-42
2022/04/19 01:35:13;;;;;;;3.97;1.77;;;;;;;;;;5124899;28;20122;-41
2022/04/19 01:37:39;;;;;;;2.65;1.90;;;;;;;;;;5124683;28;20073;-44
2022/04/19 01:40:18;;;;;;;2.10;1.50;;;;;;;;;;5125303;28;20483;-41
2022/04/19 01:42:50;;;;;;;2.35;1.88;;;;;;;;;;5124955;28;20533;-43
2022/04/19 01:45:25;;;;;;;3.30;1.65;;;;;;;;;;5124451;28;20565;-42
2022/04/19 01:47:51;;;;;;;2.60;2.03;;;;;;;;;;5125041;28;20123;-40
2022/04/19 01:50:17;;;;;;;2.85;1.60;;;;;;;;;;5124655;28;20075;-41
2022/04/19 01:52:46;;;;;;;3.95;2.50;;;;;;;;;;5123850;28;20047;-45
2022/04/19 01:55:15;;;;;;;2.30;1.80;;;;;;;;;;5124038;28;20055;-46
2022/04/19 01:57:45;;;;;;;3.80;2.38;;;;;;;;;;5124684;28;20482;-43
2022/04/19 02:00:11;;;;;;;2.80;1.42;;;;;;;;;;5124815;28;20183;-41
2022/04/19 02:02:40;;;;;;;12.48;2.47;;;;;;;;;;5123994;27;20054;-41
2022/04/19 02:05:08;;;;;;;4.32;2.75;;;;;;;;;;5128750;28;20140;-42
2022/04/19 02:07:37;;;;;;;3.75;2.83;;;;;;;;;;5128200;28;20034;-44
2022/04/19 02:10:06;;;;;;;3.65;1.73;;;;;;;;;;5128476;28;20112;-43
2022/04/19 02:12:31;;;;;;;4.63;1.70;;;;;;;;;;5126597;28;20129;-40
2022/04/19 02:15:05;;;;;;;13.13;2.58;;;;;;;;;;5128195;28;20114;-40
2022/04/19 02:17:31;;;;;;;2.45;2.25;;;;;;;;;;5128253;28;20104;-42
2022/04/19 02:20:06;;;;;;;4.63;4.03;;;;;;;;;;5128044;28;20089;-44
2022/04/19 02:22:32;;;;;;;4.97;4.30;;;;;;;;;;5127201;28;20047;-43
2022/04/19 02:25:00;;;;;;;7.28;3.47;;;;;;;;;;5128471;28;20499;-46
2022/04/19 02:27:26;;;;;;;4.53;3.38;;;;;;;;;;5105744;28;20162;-41
2022/04/19 02:29:55;;;;;;;5.82;5.13;;;;;;;;;;5126847;28;20023;-42
2022/04/19 02:32:27;;;;;;;6.20;5.15;;;;;;;;;;5126136;28;20051;-41
2022/04/19 02:34:53;;;;;;;4.72;3.10;;;;;;;;;;5128070;28;20114;-45
2022/04/19 02:37:18;;;;;;;4.50;2.00;;;;;;;;;;5127706;28;20054;-44
2022/04/19 02:39:46;;;;;;;7.97;3.55;;;;;;;;;;5127503;28;20043;-44
2022/04/19 02:42:12;;;;;;;6.13;2.90;;;;;;;;;;5127172;28;20042;-42
2022/04/19 02:44:37;;;;;;;4.55;3.25;;;;;;;;;;5128101;28;20055;-47
2022/04/19 02:47:03;;;;;;;3.85;2.22;;;;;;;;;;5128776;28;20043;-41
2022/04/19 02:49:29;;;;;;;6.10;2.45;;;;;;;;;;5127567;28;20066;-43
2022/04/19 02:51:55;;;;;;;3.45;2.63;;;;;;;;;;5127959;28;20363;-42
2022/04/19 02:54:20;;;;;;;6.57;2.90;;;;;;;;;;5128155;28;20047;-43
2022/04/19 02:56:46;;;;;;;5.05;4.05;;;;;;;;;;5127241;28;20092;-43
2022/04/19 02:59:11;;;;;;;10.38;3.60;;;;;;;;;;5127588;28;20478;-45
2022/04/19 03:01:36;;;;;;;5.82;3.55;;;;;;;;;;5125407;28;20043;-44
2022/04/19 03:04:02;;;;;;;3.40;2.33;;;;;;;;;;5108399;28;20043;-44
2022/04/19 03:06:27;;;;;;;3.47;2.75;;;;;;;;;;5127310;28;20574;-43
2022/04/19 03:08:53;;;;;;;3.08;1.80;;;;;;;;;;5127465;28;20452;-42
2022/04/19 03:11:18;;;;;;;3.22;2.00;;;;;;;;;;5127098;28;20573;-42
2022/04/19 03:13:44;;;;;;;3.50;2.53;;;;;;;;;;5127707;28;20049;-43
2022/04/19 03:16:13;;;;;;;3.03;2.08;;;;;;;;;;5127497;27;20050;-43
2022/04/19 03:18:42;;;;;;;2.90;2.15;;;;;;;;;;5128311;28;20563;-41
2022/04/19 03:21:11;;;;;;;3.20;2.55;;;;;;;;;;5125909;28;20074;-42
2022/04/19 03:29:05;;;;;;;3.92;2.85;;;;;;;;;;5127042;28;20137;-41
2022/04/19 03:31:31;;;;;;;4.85;2.88;;;;;;;;;;5127031;28;20163;-44
2022/04/19 03:33:57;;;;;;;3.67;2.15;;;;;;;;;;5127486;28;20519;-42
2022/04/19 03:36:23;;;;;;;8.55;2.60;;;;;;;;;;5126809;28;20134;-40
2022/04/19 03:38:48;;;;;;;5.57;2.38;;;;;;;;;;5125764;28;20039;-42
2022/04/19 03:41:13;;;;;;;3.17;2.40;;;;;;;;;;5127379;28;20051;-45
2022/04/19 03:43:41;;;;;;;9.05;3.35;;;;;;;;;;5126655;28;20982;-42
2022/04/19 03:46:10;;;;;;;2.80;2.38;;;;;;;;;;5127604;28;20109;-44
2022/04/19 03:48:35;;;;;;;3.67;2.22;;;;;;;;;;5127609;28;20652;-42
2022/04/19 03:51:03;;;;;;;2.90;2.38;;;;;;;;;;5127803;28;20068;-46
2022/04/19 03:53:28;;;;;;;4.50;1.83;;;;;;;;;;5125389;28;20046;-42
2022/04/19 03:55:54;;;;;;;5.35;2.45;;;;;;;;;;5126696;28;20108;-41
2022/04/19 03:58:19;;;;;;;2.33;2.10;;;;;;;;;;5127574;28;20047;-45
2022/04/19 04:00:44;;;;;;;3.78;2.65;;;;;;;;;;5126414;28;20035;-43
2022/04/19 04:03:10;;;;;;;4.15;2.72;;;;;;;;;;5125562;28;20142;-44
2022/04/19 04:05:35;;;;;;;2.70;1.83;;;;;;;;;;5126089;28;20039;-41
2022/04/19 04:08:00;;;;;;;1.55;1.15;;;;;;;;;;5126271;28;20500;-41
2022/04/19 04:10:26;;;;;;;3.00;2.05;;;;;;;;;;5127351;28;20050;-42
2022/04/19 04:12:51;;;;;;;2.67;1.98;;;;;;;;;;5126481;28;20466;-41
2022/04/19 04:15:17;;;;;;;2.55;1.45;;;;;;;;;;5126645;28;20418;-41
2022/04/19 04:17:43;;;;;;;3.83;2.40;;;;;;;;;;5126607;28;20767;-42
2022/04/19 04:20:09;;;;;;;3.17;2.17;;;;;;;;;;5126867;28;20502;-43
2022/04/19 04:22:34;;;;;;;9.10;2.45;;;;;;;;;;5126237;28;20047;-44
2022/04/19 04:24:59;;;;;;;11.13;3.35;;;;;;;;;;5125646;28;20055;-44
2022/04/19 04:27:25;;;;;;;6.32;4.03;;;;;;;;;;5125169;27;20299;-42
2022/04/19 04:29:50;;;;;;;3.97;2.88;;;;;;;;;;5126401;28;20554;-44
2022/04/19 04:32:16;;;;;;;5.60;2.22;;;;;;;;;;5126525;28;20518;-41
2022/04/19 04:34:42;;;;;;;5.78;2.83;;;;;;;;;;5126466;28;20146;-44
2022/04/19 04:37:07;;;;;;;2.83;2.22;;;;;;;;;;5126307;28;20102;-40
2022/04/19 04:39:32;;;;;;;3.47;1.95;;;;;;;;;;5125965;28;20074;-40
2022/04/19 04:41:58;;;;;;;4.38;3.00;;;;;;;;;;5124901;28;20367;-44
2022/04/19 04:44:23;;;;;;;8.50;2.33;;;;;;;;;;5125224;28;20055;-42
2022/04/19 04:49:35;;;;;;;3.67;2.33;;;;;;;;;;5125936;28;20046;-42
2022/04/19 04:52:01;;;;;;;3.60;2.67;;;;;;;;;;5126467;28;20130;-42
2022/04/19 04:54:26;;;;;;;13.10;3.22;;;;;;;;;;5126316;28;20146;-44
2022/04/19 04:56:52;;;;;;;7.75;2.58;;;;;;;;;;5125561;28;20134;-45
2022/04/19 04:59:17;;;;;;;2.85;1.83;;;;;;;;;;5126095;28;20047;-45
2022/04/19 05:01:43;;;;;;;7.22;2.33;;;;;;;;;;5125156;28;20043;-41
2022/04/19 05:04:08;;;;;;;19.30;12.77;;;;;;;;;;5125141;28;20446;-42
2022/04/19 05:06:34;;;;;;;2.95;2.55;;;;;;;;;;5125370;28;20582;-42
2022/04/19 05:08:59;;;;;;;4.40;2.42;;;;;;;;;;5125989;28;20103;-41
2022/04/19 05:11:24;;;;;;;4.30;2.53;;;;;;;;;;5126127;28;20769;-40
2022/04/19 05:13:50;;;;;;;5.60;2.47;;;;;;;;;;5125122;28;20095;-43
2022/04/19 05:16:15;;;;;;;10.50;3.20;;;;;;;;;;5125545;28;20453;-41
2022/04/19 05:18:40;;;;;;;10.90;3.78;;;;;;;;;;5125807;28;20099;-40
2022/04/19 05:21:07;;;;;;;5.00;2.70;;;;;;;;;;5125594;28;20505;-40
2022/04/19 05:23:33;;;;;;;9.35;4.10;;;;;;;;;;5125877;28;20115;-41
2022/04/19 05:25:59;;;;;;;17.85;4.30;;;;;;;;;;5125937;28;20039;-41
2022/04/19 05:28:24;;;;;;;11.13;4.88;;;;;;;;;;5125276;28;20046;-40
2022/04/19 05:30:50;;;;;;;10.45;5.18;;;;;;;;;;5125211;28;20055;-41
2022/04/19 05:33:15;;;;;;;9.10;3.33;;;;;;;;;;5125625;28;20069;-39
2022/04/19 05:35:41;;;;;;;10.50;3.58;;;;;;;;;;5125363;28;20939;-42
2022/04/19 05:38:06;;;;;;;7.03;2.75;;;;;;;;;;5124789;27;20043;-39
2022/04/19 05:40:32;;;;;;;6.50;3.58;;;;;;;;;;5125390;28;20043;-43
2022/04/19 05:42:57;;;;;;;3.95;3.47;;;;;;;;;;5125263;28;20550;-40
2022/04/19 05:45:23;;;;;;;12.48;3.80;;;;;;;;;;5125381;28;20502;-42
2022/04/19 05:47:48;;;;;;;18.38;5.68;;;;;;;;;;5125509;28;20538;-43
2022/04/19 05:50:13;;;;;;;5.38;3.08;;;;;;;;;;5125210;28;20118;-39
2022/04/19 05:52:39;;;;;;;8.57;3.10;;;;;;;;;;5124260;28;20070;-40
2022/04/19 05:55:04;;;;;;;10.07;4.75;;;;;;;;;;5125175;28;20031;-44
2022/04/19 05:57:30;;;;;;;14.60;3.58;;;;;;;;;;5123204;28;20536;-43
2022/04/19 05:59:55;;;;;;;5.50;4.13;;;;;;;;;;5122993;28;20529;-42
2022/04/19 06:05:04;;;;;;;14.32;5.68;;;;;;;;;;5124278;28;20092;-42
2022/04/19 06:07:30;;;;;;;10.40;3.83;;;;;;;;;;5123766;28;20055;-42
2022/04/19 06:09:56;;;;;;;7.25;4.03;;;;;;;;;;5125230;28;20118;-41
2022/04/19 06:12:21;;;;;;;13.32;4.03;;;;;;;;;;5124021;28;20134;-40
2022/04/19 06:14:47;;;;;;;17.80;6.78;;;;;;;;;;5124833;28;20066;-43
2022/04/19 06:17:17;;;;;;;5.72;4.25;;;;;;;;;;5124613;28;20576;-46
2022/04/19 06:19:42;;;;;;;13.45;5.35;;;;;;;;;;5125061;28;20057;-42
2022/04/19 06:22:08;;;;;;;16.52;5.05;;;;;;;;;;5124357;27;20228;-39
2022/04/19 06:24:34;;;;;;;13.07;3.70;;;;;;;;;;5122088;28;20055;-40
2022/04/19 06:26:59;;;;;;;6.47;5.78;;;;;;;;;;5124433;28;20100;-41
2022/04/19 06:29:24;;;;;;;6.63;3.30;;;;;;;;;;5124729;28;20051;-41
2022/04/19 06:31:50;;;;;;;9.07;4.63;;;;;;;;;;5123151;28;20661;-43
2022/04/19 06:34:16;;;;;;;5.40;3.55;;;;;;;;;;5104093;28;21047;-43
2022/04/19 06:36:42;;;;;;;6.72;3.95;;;;;;;;;;5122147;28;20039;-39
2022/04/19 06:39:08;;;;;;;7.53;2.78;;;;;;;;;;5123179;28;20122;-41
2022/04/19 06:41:33;;;;;;;21.52;4.15;;;;;;;;;;5123224;28;20882;-44
2022/04/19 06:43:59;;;;;;;3.47;1.52;;;;;;;;;;5123559;28;20050;-43
2022/04/19 06:46:25;;;;;;;10.23;2.53;;;;;;;;;;5124432;28;20619;-40
2022/04/19 06:48:51;;;;;;;5.97;2.58;;;;;;;;;;5123877;28;20111;-43
2022/04/19 06:51:17;;;;;;;12.18;3.65;;;;;;;;;;5125559;27;20130;-40
2022/04/19 06:53:43;;;;;;;13.05;2.85;;;;;;;;;;5125682;28;20047;-44
2022/04/19 06:56:10;;;;;;;7.60;5.00;;;;;;;;;;5126322;28;20103;-42
2022/04/19 06:58:35;;;;;;;6.78;6.13;;;;;;;;;;5127430;28;20239;-40
2022/04/19 07:01:01;;;;;;;12.55;9.32;;;;;;;;;;5125226;27;20558;-40
2022/04/19 07:03:26;;;;;;;32.17;7.93;;;;;;;;;;5125552;28;20134;-47
2022/04/19 07:05:51;;;;;;;20.00;7.68;;;;;;;;;;5125498;28;20116;-39
2022/04/19 07:08:17;;;;;;;23.27;8.65;;;;;;;;;;5126792;28;20046;-40
2022/04/19 07:10:42;;;;;;;11.82;8.63;;;;;;;;;;5126200;28;20470;-44
2022/04/19 07:13:08;;;;;;;16.42;7.32;;;;;;;;;;5125211;28;20035;-41
2022/04/19 07:15:33;;;;;;;8.88;5.70;;;;;;;;;;5125621;27;20445;-40
2022/04/19 07:17:58;;;;;;;8.88;6.82;;;;;;;;;;5126629;28;20158;-42
2022/04/19 07:28:35;;;;;;;11.57;10.23;;;;;;;;;;5125636;28;20111;-43
2022/04/19 07:31:01;;;;;;;26.50;15.00;;;;;;;;;;5124943;27;20503;-47
2022/04/19 07:33:26;;;;;;;13.38;11.52;;;;;;;;;;5124648;28;20050;-40
2022/04/19 07:35:55;;;;;;;7.18;6.07;;;;;;;;;;5124890;28;20051;-42
2022/04/19 07:38:20;;;;;;;5.43;2.92;;;;;;;;;;5125671;28;20119;-41
2022/04/19 07:40:46;;;;;;;1.48;1.25;;;;;;;;;;5126186;28;20486;-43
2022/04/19 07:43:11;;;;;;;5.15;2.53;;;;;;;;;;5126566;28;20051;-42
2022/04/19 07:45:37;;;;;;;2.47;1.65;;;;;;;;;;5125848;28;20043;-46
2022/04/19 07:48:04;;;;;;;2.25;1.52;;;;;;;;;;5125955;28;20043;-40
2022/04/19 07:50:30;;;;;;;3.22;2.28;;;;;;;;;;5125406;28;20502;-40
2022/04/19 07:52:55;;;;;;;1.65;1.30;;;;;;;;;;5126194;27;20046;-44
2022/04/19 07:55:21;;;;;;;1.50;1.35;;;;;;;;;;5126587;28;20047;-43
2022/04/19 07:57:46;;;;;;;1.73;1.23;;;;;;;;;;5127191;28;20182;-40
2022/04/19 08:00:13;;;;;;;4.40;2.80;;;;;;;;;;5126403;28;20177;-43
2022/04/19 08:02:39;;;;;;;5.90;2.20;;;;;;;;;;5126566;27;20406;-46
2022/04/19 08:05:07;;;;;;;1.98;1.33;;;;;;;;;;5125846;28;20043;-43
2022/04/19 08:07:33;;;;;;;3.65;2.17;;;;;;;;;;5127281;28;20066;-48
2022/04/19 08:09:59;;;;;;;4.07;1.70;;;;;;;;;;5126493;28;20498;-42
2022/04/19 08:12:24;;;;;;;1.83;1.20;;;;;;;;;;5126850;28;20138;-43
2022/04/19 08:14:50;;;;;;;1.88;1.10;;;;;;;;;;5125656;28;20641;-41
2022/04/19 08:17:15;;;;;;;2.83;1.92;;;;;;;;;;5126907;28;20523;-39
2022/04/19 08:19:41;;;;;;;9.63;8.65;;;;;;;;;;5126578;28;20043;-39
2022/04/19 08:22:06;;;;;;;7.88;1.98;;;;;;;;;;5126443;28;20686;-39
2022/04/19 08:24:32;;;;;;;1.45;0.90;;;;;;;;;;5125788;28;20043;-42
2022/04/19 08:27:00;;;;;;;14.32;3.10;;;;;;;;;;5125801;28;20047;-41
2022/04/19 08:29:25;;;;;;;9.52;5.90;;;;;;;;;;5125260;28;20049;-44
2022/04/19 08:31:51;;;;;;;8.07;4.90;;;;;;;;;;5125580;28;20688;-43
2022/04/19 08:34:16;;;;;;;16.20;7.57;;;;;;;;;;5125800;28;20071;-44
2022/04/19 08:36:45;;;;;;;8.85;7.07;;;;;;;;;;5125899;28;20042;-43
2022/04/19 08:39:10;;;;;;;12.88;7.00;;;;;;;;;;5125670;28;20733;-43
2022/04/19 08:41:37;;;;;;;12.02;8.73;;;;;;;;;;5126269;28;21528;-41
2022/04/19 08:44:04;;;;;;;20.70;7.57;;;;;;;;;;5125820;28;20051;-42
2022/04/19 08:46:31;;;;;;;14.13;7.93;;;;;;;;;;5126114;28;20043;-48
2022/04/19 08:49:01;;;;;;;8.77;5.10;;;;;;;;;;5125974;28;20623;-41
2022/04/19 08:51:27;;;;;;;5.95;4.32;;;;;;;;;;5125598;28;20039;-43
2022/04/19 08:59:29;;;;;;;3.90;2.70;;;;;;;;;;5123124;28;20074;-43
2022/04/19 09:01:54;;;;;;;7.32;1.90;;;;;;;;;;5123733;28;20051;-41
2022/04/19 09:04:23;;;;;;;5.25;2.83;;;;;;;;;;5126300;28;20712;-43
2022/04/19 09:06:52;;;;;;;4.35;2.83;;;;;;;;;;5126168;28;20180;-43
2022/04/19 09:09:20;;;;;;;9.80;1.83;;;;;;;;;;5126041;28;20103;-40
2022/04/19 09:11:45;;;;;;;1.50;1.02;;;;;;;;;;5125511;28;20043;-41
2022/04/19 09:14:10;;;;;;;7.18;4.32;;;;;;;;;;5124823;27;20051;-42
2022/04/19 09:16:36;;;;;;;14.80;6.07;;;;;;;;;;5125347;28;20043;-39
2022/04/19 09:19:01;;;;;;;11.95;5.47;;;;;;;;;;5125811;28;20043;-46
2022/04/19 09:21:40;;;;;;;5.57;4.32;;;;;;;;;;5124837;28;20066;-42
2022/04/19 09:24:25;;;;;;;15.13;7.85;;;;;;;;;;5122336;28;20043;-42
2022/04/19 09:26:51;;;;;;;9.52;5.57;;;;;;;;;;5122151;28;20054;-40
2022/04/19 09:29:26;;;;;;;6.03;3.78;;;;;;;;;;5124722;28;20485;-42
2022/04/19 09:31:52;;;;;;;3.33;2.50;;;;;;;;;;5123959;27;20126;-44
2022/04/19 09:34:27;;;;;;;5.18;2.53;;;;;;;;;;5103179;28;20043;-40
2022/04/19 09:36:53;;;;;;;11.60;3.95;;;;;;;;;;5124854;28;20048;-44
2022/04/19 09:39:25;;;;;;;7.20;3.20;;;;;;;;;;5124507;28;20046;-40
2022/04/19 09:41:59;;;;;;;7.95;4.07;;;;;;;;;;5123973;28;20094;-42
2022/04/19 09:44:24;;;;;;;5.22;2.60;;;;;;;;;;5123522;28;20039;-41
2022/04/19 09:47:02;;;;;;;2.83;1.08;;;;;;;;;;5124152;28;20039;-39
2022/04/19 09:49:48;;;;;;;5.88;3.28;;;;;;;;;;5124265;28;20047;-44
2022/04/19 09:52:22;;;;;;;9.48;3.55;;;;;;;;;;5111645;28;20107;-43
2022/04/19 09:55:08;;;;;;;6.45;4.70;;;;;;;;;;5104867;28;20383;-40
2022/04/19 09:57:37;;;;;;;7.68;3.38;;;;;;;;;;5122876;28;20490;-42
2022/04/19 10:00:04;;;;;;;7.05;4.07;;;;;;;;;;5100904;28;20739;-43
2022/04/19 10:10:42;;;;;;;12.23;5.47;;;;;;;;;;5123910;28;20084;-44
2022/04/19 10:13:08;;;;;;;7.78;5.03;;;;;;;;;;5123950;28;20051;-45
2022/04/19 10:15:34;;;;;;;13.70;10.85;;;;;;;;;;5123696;28;20053;-46
2022/04/19 10:17:59;;;;;;;14.70;7.28;;;;;;;;;;5124362;28;20040;-43
2022/04/19 10:20:31;;;;;;;9.23;7.07;;;;;;;;;;5124240;28;20779;-44
2022/04/19 10:23:01;;;;;;;14.50;11.32;;;;;;;;;;5123987;28;20051;-44
2022/04/19 10:25:34;;;;;;;16.45;11.05;;;;;;;;;;5126504;27;20050;-46
2022/04/19 10:28:02;;;;;;;11.48;6.82;;;;;;;;;;5125739;28;20038;-43
2022/04/19 10:30:32;;;;;;;9.05;8.07;;;;;;;;;;5126475;28;20121;-42
2022/04/19 10:32:57;;;;;;;5.70;4.97;;;;;;;;;;5127184;28;20051;-40
2022/04/19 10:35:23;;;;;;;8.75;5.72;;;;;;;;;;5126478;28;20091;-41
2022/04/19 10:38:08;;;;;;;4.53;4.13;;;;;;;;;;5126585;27;20112;-40
2022/04/19 10:40:50;;;;;;;12.55;5.57;;;;;;;;;;5125103;28;20047;-44
2022/04/19 10:43:15;;;;;;;4.15;3.30;;;;;;;;;;5126698;28;20383;-39
2022/04/19 10:45:42;;;;;;;8.90;3.97;;;;;;;;;;5126066;28;20529;-43
2022/04/19 10:48:08;;;;;;;12.00;5.40;;;;;;;;;;5127031;28;20057;-42
2022/04/19 10:50:35;;;;;;;9.93;4.03;;;;;;;;;;5127286;28;20074;-41
2022/04/19 10:53:04;;;;;;;8.93;4.72;;;;;;;;;;5126987;28;20411;-41
2022/04/19 10:55:34;;;;;;;5.47;3.67;;;;;;;;;;5126723;28;20089;-46
2022/04/19 10:58:23;;;;;;;11.20;3.28;;;;;;;;;;5126664;28;20391;-42
2022/04/19 11:00:51;;;;;;;6.80;3.13;;;;;;;;;;5123780;28;20039;-40
2022/04/19 11:03:21;;;;;;;8.82;4.88;;;;;;;;;;5127231;28;20046;-42
2022/04/19 11:05:52;;;;;;;7.38;3.13;;;;;;;;;;5126379;28;20096;-44
2022/04/19 11:08:24;;;;;;;2.50;1.92;;;;;;;;;;5126377;28;20126;-44
2022/04/19 11:10:50;;;;;;;3.10;1.85;;;;;;;;;;5126579;27;20119;-40
2022/04/19 11:13:16;;;;;;;7.05;5.97;;;;;;;;;;5127180;28;20054;-44
2022/04/19 11:15:42;;;;;;;4.68;1.75;;;;;;;;;;5128039;28;20043;-40
2022/04/19 11:18:22;;;;;;;3.22;1.33;;;;;;;;;;5127723;28;20125;-39
2022/04/19 11:20:47;;;;;;;3.30;2.15;;;;;;;;;;5128090;28;20151;-45
2022/04/19 11:23:19;;;;;;;5.13;2.08;;;;;;;;;;5127531;28;20453;-40
2022/04/19 11:25:48;;;;;;;2.22;1.40;;;;;;;;;;5126403;28;20173;-40
2022/04/19 11:28:23;;;;;;;5.82;1.50;;;;;;;;;;5126647;28;20035;-40
2022/04/19 11:30:58;;;;;;;3.88;2.45;;;;;;;;;;5127277;28;20124;-39
2022/04/19 11:33:26;;;;;;;8.13;2.00;;;;;;;;;;5127297;28;20035;-42
2022/04/19 11:35:59;;;;;;;2.83;1.48;;;;;;;;;;5126159;27;20043;-40
2022/04/19 11:38:24;;;;;;;5.05;1.67;;;;;;;;;;5125837;28;20042;-41
2022/04/19 11:49:06;;;;;;;7.05;3.40;;;;;;;;;;5127140;28;20054;-45
2022/04/19 11:51:35;;;;;;;4.97;2.17;;;;;;;;;;5126980;28;20043;-39
2022/04/19 11:54:01;;;;;;;5.13;1.83;;;;;;;;;;5125734;28;20045;-39
2022/04/19 11:56:27;;;;;;;4.03;1.85;;;;;;;;;;5126100;27;20054;-44
2022/04/19 11:58:52;;;;;;;1.98;1.73;;;;;;;;;;5126964;28;20165;-41
2022/04/19 12:01:18;;;;;;;3.83;1.08;;;;;;;;;;5127314;28;20046;-42
2022/04/19 12:03:44;;;;;;;4.88;2.15;;;;;;;;;;5126655;28;20113;-43
2022/04/19 12:06:14;;;;;;;2.33;1.38;;;;;;;;;;5126921;28;20046;-41
2022/04/19 12:08:43;;;;;;;2.80;2.00;;;;;;;;;;5126844;28;20051;-43
2022/04/19 12:11:10;;;;;;;2.17;1.25;;;;;;;;;;5126387;28;20051;-45
2022/04/19 12:13:36;;;;;;;6.72;2.85;;;;;;;;;;5106988;28;20050;-43
2022/04/19 12:16:03;;;;;;;1.75;1.10;;;;;;;;;;5125886;28;20051;-43
2022/04/19 12:18:36;;;;;;;1.00;0.68;;;;;;;;;;5126371;28;20049;-41
2022/04/19 12:21:03;;;;;;;5.65;1.55;;;;;;;;;;5125573;28;20039;-44
2022/04/19 12:23:28;;;;;;;3.47;1.83;;;;;;;;;;5125676;28;20070;-46
2022/04/19 12:26:06;;;;;;;4.82;1.98;;;;;;;;;;5125979;28;20126;-46
2022/04/19 12:28:43;;;;;;;3.63;1.45;;;;;;;;;;5126305;28;20126;-43
2022/04/19 12:31:26;;;;;;;3.60;1.00;;;;;;;;;;5125031;28;20053;-45
2022/04/19 12:33:52;;;;;;;5.75;1.40;;;;;;;;;;5125993;28;20039;-42
2022/04/19 12:36:22;;;;;;;6.65;1.42;;;;;;;;;;5126310;28;20112;-43
2022/04/19 12:38:56;;;;;;;2.42;1.55;;;;;;;;;;5124066;28;20162;-42
2022/04/19 12:41:22;;;;;;;3.95;1.15;;;;;;;;;;5125844;28;20101;-42
2022/04/19 12:43:47;;;;;;;9.40;1.88;;;;;;;;;;5126521;28;20541;-40
2022/04/19 12:46:14;;;;;;;2.92;1.90;;;;;;;;;;5127199;28;20078;-41
2022/04/19 12:48:40;;;;;;;2.15;1.55;;;;;;;;;;5125631;27;20126;-46
2022/04/19 12:51:05;;;;;;;8.90;1.45;;;;;;;;;;5126416;28;20126;-45
2022/04/19 12:53:35;;;;;;;3.70;2.03;;;;;;;;;;5126592;28;20393;-41
2022/04/19 12:56:11;;;;;;;3.20;1.83;;;;;;;;;;5125385;28;20103;-46
2022/04/19 12:58:43;;;;;;;5.35;1.70;;;;;;;;;;5125788;28;20494;-46
2022/04/19 13:01:08;;;;;;;3.35;1.67;;;;;;;;;;5125906;28;20050;-48
2022/04/19 13:03:34;;;;;;;6.80;1.60;;;;;;;;;;5107290;28;20035;-43
2022/04/19 13:14:13;;;;;;;5.22;1.90;;;;;;;;;;5125983;27;20177;-46
2022/04/19 13:16:38;;;;;;;2.63;1.80;;;;;;;;;;5107929;28;20043;-42
2022/04/19 13:19:04;;;;;;;4.43;2.90;;;;;;;;;;5125877;28;20422;-41
2022/04/19 13:21:29;;;;;;;5.45;3.33;;;;;;;;;;5126518;28;20074;-40
2022/04/19 13:23:55;;;;;;;7.18;4.32;;;;;;;;;;5125590;28;20649;-46
2022/04/19 13:26:21;;;;;;;3.05;2.15;;;;;;;;;;5125156;28;20569;-40
2022/04/19 13:28:46;;;;;;;2.22;1.27;;;;;;;;;;5124273;28;20108;-41
2022/04/19 13:31:11;;;;;;;1.95;1.55;;;;;;;;;;5124961;28;20046;-41
2022/04/19 13:33:37;;;;;;;4.70;1.67;;;;;;;;;;5124856;28;20069;-40
2022/04/19 13:36:02;;;;;;;5.35;1.65;;;;;;;;;;5124634;28;20698;-41
2022/04/19 13:38:28;;;;;;;2.70;1.38;;;;;;;;;;5124240;28;20055;-39
2022/04/19 13:40:53;;;;;;;1.30;0.82;;;;;;;;;;5125287;28;20047;-41
2022/04/19 13:43:19;;;;;;;1.95;1.02;;;;;;;;;;5125396;28;20039;-41
2022/04/19 13:45:44;;;;;;;2.42;1.25;;;;;;;;;;5124726;28;20047;-43
2022/04/19 13:48:10;;;;;;;15.07;1.50;;;;;;;;;;5124777;28;20051;-46
2022/04/19 13:50:36;;;;;;;1.17;0.60;;;;;;;;;;5124806;28;20062;-41
2022/04/19 13:53:02;;;;;;;2.03;1.05;;;;;;;;;;5124814;28;20061;-44
2022/04/19 13:55:28;;;;;;;0.93;0.50;;;;;;;;;;5123600;28;20627;-45
2022/04/19 13:57:55;;;;;;;2.85;1.70;;;;;;;;;;5124696;28;20128;-43
2022/04/19 14:00:21;;;;;;;2.88;1.60;;;;;;;;;;5127219;27;20122;-42
2022/04/19 14:02:46;;;;;;;5.07;1.08;;;;;;;;;;5128234;28;20434;-45
2022/04/19 14:05:12;;;;;;;6.10;0.50;;;;;;;;;;5128210;28;20115;-40
2022/04/19 14:07:38;;;;;;;1.98;1.10;;;;;;;;;;5128415;28;20051;-41
2022/04/19 14:10:06;;;;;;;6.82;1.38;;;;;;;;;;5110314;28;20039;-40
2022/04/19 14:12:31;;;;;;;2.58;1.33;;;;;;;;;;5128629;28;20076;-45
2022/04/19 14:14:57;;;;;;;3.40;1.55;;;;;;;;;;5128246;28;20130;-41
2022/04/19 14:17:22;;;;;;;1.35;1.05;;;;;;;;;;5128173;28;20139;-43
2022/04/19 14:19:51;;;;;;;5.43;1.77;;;;;;;;;;5128381;28;20043;-41
2022/04/19 14:22:17;;;;;;;2.22;1.17;;;;;;;;;;5127315;28;20099;-40
2022/04/19 14:24:43;;;;;;;6.30;2.75;;;;;;;;;;5127392;28;20133;-44
2022/04/19 14:27:08;;;;;;;3.97;2.53;;;;;;;;;;5127212;28;20124;-43
2022/04/19 14:35:02;;;;;;;3.50;1.58;;;;;;;;;;5127677;28;20187;-42
2022/04/19 14:37:27;;;;;;;2.08;1.38;;;;;;;;;;5127567;28;20043;-43
2022/04/19 14:39:53;;;;;;;3.42;1.98;;;;;;;;;;5128323;28;20542;-46
2022/04/19 14:42:18;;;;;;;2.05;1.20;;;;;;;;;;5127918;28;20131;-42
2022/04/19 14:44:43;;;;;;;2.45;1.02;;;;;;;;;;5127146;28;20506;-45
2022/04/19 14:47:10;;;;;;;6.90;1.23;;;;;;;;;;5127158;28;20046;-43
2022/04/19 14:49:35;;;;;;;2.30;1.13;;;;;;;;;;5127603;28;20028;-43
2022/04/19 14:52:19;;;;;;;9.32;1.05;;;;;;;;;;5126820;28;20043;-39
2022/04/19 14:54:45;;;;;;;2.05;1.05;;;;;;;;;;5125393;28;20091;-43
2022/04/19 14:57:11;;;;;;;1.92;1.27;;;;;;;;;;5127056;28;20494;-42
2022/04/19 14:59:36;;;;;;;2.90;2.25;;;;;;;;;;5127324;28;20031;-44
2022/04/19 15:02:04;;;;;;;11.10;2.90;;;;;;;;;;5127542;28;20127;-42
2022/04/19 15:04:29;;;;;;;6.35;2.55;;;;;;;;;;5126674;28;20092;-45
2022/04/19 15:06:55;;;;;;;3.40;2.33;;;;;;;;;;5126892;28;20058;-41
2022/04/19 15:09:20;;;;;;;4.32;1.63;;;;;;;;;;5127459;28;20049;-42
2022/04/19 15:11:46;;;;;;;6.85;4.07;;;;;;;;;;5126378;27;20062;-46
2022/04/19 15:14:11;;;;;;;2.85;2.33;;;;;;;;;;5127071;28;20035;-42
2022/04/19 15:16:37;;;;;;;4.78;1.55;;;;;;;;;;5126570;28;20042;-46
2022/04/19 15:19:02;;;;;;;4.55;2.65;;;;;;;;;;5127014;28;20039;-42
2022/04/19 15:21:27;;;;;;;3.05;2.17;;;;;;;;;;5127210;28;20394;-43
2022/04/19 15:23:53;;;;;;;2.38;1.67;;;;;;;;;;5126399;28;20039;-42
2022/04/19 15:26:18;;;;;;;3.65;1.27;;;;;;;;;;5126716;28;20039;-42
2022/04/19 15:28:44;;;;;;;2.05;1.50;;;;;;;;;;5126750;28;20490;-39
2022/04/19 15:31:09;;;;;;;6.93;4.90;;;;;;;;;;5126435;28;20451;-41
2022/04/19 15:33:34;;;;;;;3.38;1.30;;;;;;;;;;5126430;28;20043;-43